Time;durP1;ratioP1;P1;durP2;ratioP2;P2;SDS_P1;SDS_P2;PMS_P1;PMS_P2;Temp;Humidity;BMP_temperature;BMP_pressure;BME280_temperature;BME280_humidity;BME280_pressure;Samples;Min_cycle;Max_cycle;Signal;HPM_P1;HPM_P2
2022/02/24 00:00:38;;;;;;;5.63;2.87;;;5.70;64.10;;;;;;5056718;28;20074;-81
2022/02/24 00:03:04;;;;;;;4.60;2.17;;;5.60;64.10;;;;;;5065421;28;20044;-81
2022/02/24 00:05:30;;;;;;;4.43;2.40;;;5.50;64.30;;;;;;5058663;28;20052;-81
2022/02/24 00:07:56;;;;;;;5.33;2.60;;;5.50;64.50;;;;;;5055848;28;20043;-81
2022/02/24 00:10:21;;;;;;;4.20;2.10;;;5.50;64.50;;;;;;5053020;28;20025;-81
2022/02/24 00:12:48;;;;;;;4.20;2.30;;;5.50;64.60;;;;;;5055043;28;20029;-81
2022/02/24 00:15:13;;;;;;;2.10;1.00;;;5.50;64.70;;;;;;5056303;28;20113;-81
2022/02/24 00:17:40;;;;;;;3.23;1.57;;;5.50;64.30;;;;;;5050568;28;20124;-81
2022/02/24 00:20:07;;;;;;;2.10;0.93;;;5.50;64.20;;;;;;5064042;28;20184;-81
2022/02/24 00:22:34;;;;;;;3.10;0.97;;;5.50;64.10;;;;;;5055141;28;20024;-81
2022/02/24 00:25:00;;;;;;;2.93;1.27;;;5.40;64.10;;;;;;5070919;28;20038;-81
2022/02/24 00:27:26;;;;;;;4.60;1.37;;;5.40;64.20;;;;;;5072622;28;20024;-81
2022/02/24 00:29:52;;;;;;;2.03;0.77;;;5.40;64.20;;;;;;5059922;28;20736;-82
2022/02/24 00:32:18;;;;;;;1.97;0.80;;;5.30;63.90;;;;;;5055839;28;20112;-81
2022/02/24 00:34:44;;;;;;;1.60;1.07;;;5.30;63.90;;;;;;5055952;28;20020;-81
2022/02/24 00:37:10;;;;;;;6.00;1.37;;;5.20;64.00;;;;;;5055437;28;20032;-81
2022/02/24 00:39:36;;;;;;;3.73;1.30;;;5.10;64.00;;;;;;5073778;28;20035;-81
2022/02/24 00:42:02;;;;;;;3.37;2.07;;;5.20;64.00;;;;;;5073139;28;20366;-81
2022/02/24 00:44:27;;;;;;;4.73;2.13;;;5.10;64.00;;;;;;5064097;28;20021;-80
2022/02/24 00:46:53;;;;;;;3.10;1.40;;;5.10;64.20;;;;;;5055145;28;20067;-81
2022/02/24 00:49:20;;;;;;;3.37;1.90;;;5.10;64.30;;;;;;5052394;28;20151;-81
2022/02/24 00:51:46;;;;;;;4.30;2.00;;;5.10;64.20;;;;;;5055775;28;20032;-81
2022/02/24 00:54:13;;;;;;;4.13;2.23;;;5.10;64.30;;;;;;5053708;28;20028;-81
2022/02/24 00:56:40;;;;;;;4.60;1.50;;;5.00;64.50;;;;;;5072218;28;20493;-81
2022/02/24 00:59:05;;;;;;;4.33;2.37;;;5.00;64.40;;;;;;5073810;28;20382;-80
2022/02/24 01:01:31;;;;;;;11.03;2.90;;;4.90;64.40;;;;;;5055161;28;20024;-80
2022/02/24 01:03:57;;;;;;;4.03;2.57;;;4.90;64.60;;;;;;5059794;28;20120;-80
2022/02/24 01:06:22;;;;;;;1.80;1.10;;;4.90;64.80;;;;;;5055326;28;20020;-80
2022/02/24 01:08:48;;;;;;;2.80;1.50;;;4.90;64.60;;;;;;5054965;28;20044;-82
2022/02/24 01:11:14;;;;;;;2.47;1.60;;;4.90;64.60;;;;;;5052510;28;20078;-80
2022/02/24 01:13:40;;;;;;;2.67;1.10;;;5.00;64.60;;;;;;5066788;28;20056;-80
2022/02/24 01:16:06;;;;;;;2.07;1.00;;;4.90;64.50;;;;;;5047025;28;20021;-81
2022/02/24 01:18:32;;;;;;;4.03;0.70;;;4.90;64.50;;;;;;5064799;28;20029;-80
2022/02/24 01:20:58;;;;;;;3.33;0.87;;;4.90;64.50;;;;;;5054501;28;20505;-80
2022/02/24 01:23:24;;;;;;;1.37;0.80;;;4.90;64.40;;;;;;5071555;28;20546;-80
2022/02/24 01:25:50;;;;;;;2.33;1.10;;;4.90;64.30;;;;;;5072099;28;20073;-80
2022/02/24 01:28:16;;;;;;;3.70;1.00;;;4.90;64.40;;;;;;5053723;28;20024;-80
2022/02/24 01:30:42;;;;;;;3.90;1.00;;;4.90;64.30;;;;;;5072388;28;20031;-80
2022/02/24 01:33:08;;;;;;;3.33;0.93;;;4.90;64.70;;;;;;5048415;28;20395;-80
2022/02/24 01:35:33;;;;;;;2.30;0.90;;;4.80;64.10;;;;;;5054068;28;20024;-80
2022/02/24 01:37:59;;;;;;;1.83;0.90;;;4.80;64.20;;;;;;5053514;28;20078;-80
2022/02/24 01:40:25;;;;;;;2.33;1.07;;;4.80;64.30;;;;;;5066499;28;20101;-81
2022/02/24 01:42:51;;;;;;;3.00;1.23;;;4.70;64.40;;;;;;5066438;28;20058;-80
2022/02/24 01:45:16;;;;;;;1.70;1.10;;;4.70;64.40;;;;;;5068322;28;20075;-80
2022/02/24 01:47:43;;;;;;;2.97;0.97;;;4.70;64.30;;;;;;5052633;28;20028;-80
2022/02/24 01:50:11;;;;;;;2.00;0.90;;;4.70;64.40;;;;;;5045813;28;20032;-80
2022/02/24 01:52:39;;;;;;;2.50;1.00;;;4.70;64.40;;;;;;5052626;28;20021;-80
2022/02/24 01:55:05;;;;;;;2.80;1.37;;;4.60;64.30;;;;;;5068134;28;20520;-80
2022/02/24 01:57:31;;;;;;;2.07;1.30;;;4.70;64.30;;;;;;5068217;28;20028;-81
2022/02/24 01:59:57;;;;;;;3.00;1.20;;;4.60;64.20;;;;;;5050958;28;20430;-81
2022/02/24 02:02:23;;;;;;;2.57;1.17;;;4.60;64.40;;;;;;5051346;28;20024;-81
2022/02/24 02:04:49;;;;;;;2.67;1.47;;;4.60;64.40;;;;;;5070297;28;20029;-81
2022/02/24 02:07:15;;;;;;;2.77;1.27;;;4.60;64.60;;;;;;5050207;28;20032;-80
2022/02/24 02:09:41;;;;;;;2.50;1.30;;;4.60;64.50;;;;;;5051414;28;20123;-80
2022/02/24 02:12:07;;;;;;;3.20;1.40;;;4.60;64.40;;;;;;5070902;28;20103;-80
2022/02/24 02:14:36;;;;;;;2.93;1.93;;;4.50;64.50;;;;;;5053118;28;20036;-80
2022/02/24 02:17:02;;;;;;;2.50;1.50;;;4.50;64.90;;;;;;5069663;28;20036;-81
2022/02/24 02:19:28;;;;;;;2.10;1.37;;;4.50;64.90;;;;;;5052218;28;20055;-81
2022/02/24 02:21:54;;;;;;;4.50;1.57;;;4.30;64.90;;;;;;5072408;28;20021;-81
2022/02/24 02:24:20;;;;;;;4.00;1.13;;;4.30;65.30;;;;;;5043464;28;20028;-80
2022/02/24 02:26:46;;;;;;;1.90;1.30;;;4.30;65.10;;;;;;5050379;28;20047;-81
2022/02/24 02:29:13;;;;;;;5.57;1.43;;;4.40;65.10;;;;;;5050660;28;20047;-81
2022/02/24 02:31:39;;;;;;;4.60;1.57;;;4.30;65.00;;;;;;5057520;28;20027;-81
2022/02/24 02:34:08;;;;;;;4.77;1.90;;;4.30;65.20;;;;;;5054876;28;20166;-81
2022/02/24 02:36:36;;;;;;;3.03;1.37;;;4.30;65.30;;;;;;5068258;28;20043;-81
2022/02/24 02:39:04;;;;;;;2.37;1.10;;;4.20;65.40;;;;;;5073567;28;20028;-80
2022/02/24 02:41:32;;;;;;;5.07;1.77;;;4.30;65.30;;;;;;5046843;28;20032;-80
2022/02/24 02:43:59;;;;;;;3.33;1.17;;;4.20;65.40;;;;;;5054419;28;20495;-80
2022/02/24 02:46:24;;;;;;;4.80;1.10;;;4.20;65.40;;;;;;5053223;28;20108;-80
2022/02/24 02:48:50;;;;;;;2.27;1.10;;;4.20;65.40;;;;;;5057602;28;20435;-80
2022/02/24 02:51:16;;;;;;;3.63;1.80;;;4.30;65.30;;;;;;5046802;28;20060;-80
2022/02/24 02:53:43;;;;;;;3.70;1.70;;;4.20;65.30;;;;;;5056670;28;20038;-81
2022/02/24 02:56:09;;;;;;;4.13;2.40;;;4.30;65.50;;;;;;5067992;28;20024;-81
2022/02/24 02:58:35;;;;;;;4.50;2.27;;;4.20;65.60;;;;;;5052047;28;20033;-82
2022/02/24 03:01:01;;;;;;;3.60;1.90;;;4.30;65.50;;;;;;5074065;28;20500;-81
2022/02/24 03:03:27;;;;;;;3.00;1.90;;;4.30;65.50;;;;;;5065137;28;20025;-82
2022/02/24 03:05:53;;;;;;;2.40;1.60;;;4.30;65.30;;;;;;5053117;28;20055;-81
2022/02/24 03:08:19;;;;;;;3.97;1.80;;;4.20;65.40;;;;;;5047382;28;20761;-81
2022/02/24 03:10:46;;;;;;;3.73;1.63;;;4.20;65.50;;;;;;5037522;28;20056;-81
2022/02/24 03:13:12;;;;;;;3.57;1.90;;;4.20;65.70;;;;;;5054365;28;20020;-81
2022/02/24 03:15:38;;;;;;;3.13;1.67;;;4.20;65.70;;;;;;5058525;28;20024;-81
2022/02/24 03:18:04;;;;;;;3.90;1.57;;;4.10;65.80;;;;;;5053627;28;20116;-82
2022/02/24 03:20:32;;;;;;;2.30;1.47;;;4.20;66.00;;;;;;5068136;28;20051;-81
2022/02/24 03:22:59;;;;;;;3.13;1.90;;;4.20;65.90;;;;;;5074204;28;20044;-81
2022/02/24 03:25:24;;;;;;;3.03;1.67;;;4.20;65.80;;;;;;5056710;28;20024;-81
2022/02/24 03:27:50;;;;;;;3.80;1.37;;;4.20;65.80;;;;;;5054923;28;20031;-81
2022/02/24 03:30:16;;;;;;;4.27;2.23;;;4.20;65.80;;;;;;5053128;28;20098;-81
2022/02/24 03:32:43;;;;;;;4.07;1.90;;;4.20;65.70;;;;;;5055274;28;20038;-81
2022/02/24 03:35:10;;;;;;;2.53;1.50;;;4.20;65.70;;;;;;5067294;28;20025;-81
2022/02/24 03:37:35;;;;;;;4.57;2.13;;;4.20;65.70;;;;;;5053193;28;20030;-81
2022/02/24 03:40:03;;;;;;;3.27;1.40;;;4.20;65.60;;;;;;5055657;28;20398;-81
2022/02/24 03:42:29;;;;;;;6.00;1.83;;;4.10;65.70;;;;;;5058386;28;20086;-81
2022/02/24 03:44:55;;;;;;;3.30;1.50;;;4.10;65.70;;;;;;5073782;28;20029;-81
2022/02/24 03:47:24;;;;;;;3.00;1.50;;;4.20;66.40;;;;;;5073817;28;20038;-81
2022/02/24 03:49:51;;;;;;;6.63;1.90;;;4.20;65.70;;;;;;5046899;28;20032;-81
2022/02/24 03:52:19;;;;;;;4.00;1.50;;;4.10;65.50;;;;;;5059003;28;20397;-81
2022/02/24 03:54:45;;;;;;;2.97;1.63;;;4.10;65.80;;;;;;5072905;28;20040;-81
2022/02/24 03:57:11;;;;;;;5.30;1.30;;;4.10;65.80;;;;;;5074091;28;20067;-81
2022/02/24 03:59:37;;;;;;;3.43;1.77;;;4.10;66.00;;;;;;5072322;28;20481;-81
2022/02/24 04:02:07;;;;;;;4.07;1.67;;;4.10;65.80;;;;;;5060250;28;20025;-81
2022/02/24 04:04:33;;;;;;;8.43;1.97;;;4.10;66.00;;;;;;5054906;28;20056;-81
2022/02/24 04:06:59;;;;;;;3.37;1.80;;;4.10;66.10;;;;;;5050030;28;20106;-81
2022/02/24 04:09:25;;;;;;;3.73;1.83;;;4.10;66.00;;;;;;5068225;28;20390;-81
2022/02/24 04:11:50;;;;;;;10.30;3.20;;;4.10;66.00;;;;;;5055245;28;20024;-81
2022/02/24 04:14:16;;;;;;;10.47;5.73;;;4.10;66.00;;;;;;5055800;28;20448;-81
2022/02/24 04:16:42;;;;;;;6.47;3.43;;;4.00;65.90;;;;;;5073116;28;20036;-81
2022/02/24 04:19:08;;;;;;;5.77;2.90;;;4.10;66.10;;;;;;5070495;28;20029;-82
2022/02/24 04:21:35;;;;;;;9.10;3.07;;;4.10;66.00;;;;;;5073798;28;20023;-81
2022/02/24 04:24:02;;;;;;;8.07;3.77;;;4.10;65.90;;;;;;5058770;28;20513;-81
2022/02/24 04:26:27;;;;;;;7.40;4.03;;;4.00;65.90;;;;;;5049574;28;20043;-81
2022/02/24 04:28:53;;;;;;;6.47;2.80;;;4.00;66.10;;;;;;5051112;28;20051;-82
2022/02/24 04:31:19;;;;;;;4.00;2.07;;;4.00;66.20;;;;;;5072459;28;20342;-81
2022/02/24 04:33:44;;;;;;;5.73;3.50;;;4.00;66.20;;;;;;5055879;28;20028;-81
2022/02/24 04:36:10;;;;;;;6.27;3.97;;;4.00;66.30;;;;;;5055606;28;20036;-81
2022/02/24 04:38:36;;;;;;;8.93;4.50;;;4.00;66.20;;;;;;5073776;28;20429;-81
2022/02/24 04:41:02;;;;;;;7.17;4.90;;;4.00;66.10;;;;;;5073875;28;20030;-81
2022/02/24 04:43:27;;;;;;;7.80;4.77;;;4.10;66.00;;;;;;5055095;28;20892;-81
2022/02/24 04:45:53;;;;;;;6.67;4.87;;;4.00;65.90;;;;;;5072166;28;20046;-81
2022/02/24 04:48:21;;;;;;;6.37;3.33;;;4.00;65.90;;;;;;5055606;28;20023;-81
2022/02/24 04:50:47;;;;;;;10.77;4.50;;;4.00;66.10;;;;;;5055836;28;20035;-81
2022/02/24 04:53:13;;;;;;;7.07;3.80;;;4.00;66.20;;;;;;5055423;28;20056;-81
2022/02/24 04:55:39;;;;;;;8.17;2.80;;;3.90;66.20;;;;;;5055663;28;20020;-81
2022/02/24 04:58:05;;;;;;;7.03;3.30;;;3.90;66.20;;;;;;5072928;28;20060;-81
2022/02/24 05:00:31;;;;;;;5.40;3.07;;;3.90;66.30;;;;;;5048901;28;20029;-81
2022/02/24 05:02:57;;;;;;;8.83;3.40;;;3.90;66.20;;;;;;5054297;28;20482;-81
2022/02/24 05:05:23;;;;;;;6.30;3.30;;;3.90;66.30;;;;;;5072979;28;20032;-81
2022/02/24 05:07:49;;;;;;;4.30;2.90;;;3.90;66.30;;;;;;5051277;28;20048;-82
2022/02/24 05:10:15;;;;;;;6.30;3.30;;;3.90;66.30;;;;;;5048580;28;20410;-81
2022/02/24 05:12:41;;;;;;;8.77;3.30;;;3.90;66.30;;;;;;5041466;28;20031;-82
2022/02/24 05:15:07;;;;;;;5.57;2.70;;;3.90;66.10;;;;;;5052920;28;20406;-82
2022/02/24 05:17:33;;;;;;;3.83;2.50;;;3.90;65.90;;;;;;5052509;28;20386;-82
2022/02/24 05:20:00;;;;;;;3.97;2.80;;;3.90;65.90;;;;;;5060784;28;20021;-81
2022/02/24 05:22:26;;;;;;;4.53;2.53;;;3.90;65.90;;;;;;5050590;28;20070;-82
2022/02/24 05:24:52;;;;;;;3.40;2.53;;;3.90;66.00;;;;;;5054265;28;20029;-82
2022/02/24 05:27:18;;;;;;;4.13;2.43;;;3.80;65.90;;;;;;5058868;28;20056;-81
2022/02/24 05:29:44;;;;;;;5.70;3.00;;;3.80;66.20;;;;;;5043756;28;20028;-82
2022/02/24 05:32:09;;;;;;;4.37;2.57;;;3.80;66.30;;;;;;5065015;28;20033;-82
2022/02/24 05:34:35;;;;;;;8.70;3.03;;;3.80;66.40;;;;;;5048662;28;20025;-82
2022/02/24 05:37:01;;;;;;;4.23;2.70;;;3.70;66.30;;;;;;5054152;28;20036;-82
2022/02/24 05:39:27;;;;;;;7.20;3.87;;;3.70;66.30;;;;;;5052466;28;20021;-81
2022/02/24 05:41:53;;;;;;;9.53;3.53;;;3.80;66.10;;;;;;5060839;28;20086;-81
2022/02/24 05:44:18;;;;;;;9.20;4.40;;;3.80;65.90;;;;;;5067645;28;20029;-81
2022/02/24 05:46:45;;;;;;;7.57;4.27;;;3.70;65.90;;;;;;5049937;28;20025;-81
2022/02/24 05:49:14;;;;;;;6.77;3.67;;;3.70;65.80;;;;;;5066276;28;20425;-81
2022/02/24 05:51:41;;;;;;;10.60;4.37;;;3.70;65.70;;;;;;5051400;28;20033;-81
2022/02/24 05:54:06;;;;;;;10.43;5.77;;;3.70;65.80;;;;;;5045887;28;20033;-81
2022/02/24 05:56:32;;;;;;;16.83;7.63;;;3.60;66.00;;;;;;5049058;28;20098;-81
2022/02/24 05:58:58;;;;;;;36.93;16.20;;;3.50;66.00;;;;;;5052375;28;20025;-81
2022/02/24 06:01:23;;;;;;;54.37;24.77;;;3.60;66.30;;;;;;5053509;28;20126;-81
2022/02/24 06:03:49;;;;;;;18.43;9.87;;;3.60;66.20;;;;;;5050708;28;20029;-81
2022/02/24 06:06:15;;;;;;;19.57;9.47;;;3.70;66.10;;;;;;5066799;28;20487;-81
2022/02/24 06:08:40;;;;;;;14.57;8.70;;;3.70;66.00;;;;;;5050453;28;20084;-81
2022/02/24 06:11:06;;;;;;;16.97;8.93;;;3.70;65.90;;;;;;5050709;28;20465;-81
2022/02/24 06:13:32;;;;;;;18.60;8.03;;;3.60;65.80;;;;;;5047815;28;20025;-82
2022/02/24 06:15:59;;;;;;;14.37;7.63;;;3.60;65.90;;;;;;5045273;28;20454;-81
2022/02/24 06:18:25;;;;;;;13.13;7.47;;;3.70;65.90;;;;;;5046798;28;20040;-81
2022/02/24 06:20:50;;;;;;;11.53;6.57;;;3.60;66.00;;;;;;5039356;28;20116;-81
2022/02/24 06:23:16;;;;;;;18.17;6.40;;;3.70;65.90;;;;;;5061377;28;20112;-81
2022/02/24 06:25:42;;;;;;;9.60;5.87;;;3.70;66.00;;;;;;5051807;28;20036;-82
2022/02/24 06:28:08;;;;;;;12.37;5.70;;;3.70;66.00;;;;;;5038711;28;20112;-81
2022/02/24 06:30:33;;;;;;;10.90;5.77;;;3.60;65.90;;;;;;5051501;28;20025;-81
2022/02/24 06:32:59;;;;;;;13.90;5.53;;;3.70;66.00;;;;;;5051223;28;20029;-81
2022/02/24 06:35:25;;;;;;;15.10;6.00;;;3.70;65.90;;;;;;5050245;28;20056;-81
2022/02/24 06:37:51;;;;;;;8.93;5.20;;;3.70;65.90;;;;;;5050701;28;20083;-81
2022/02/24 06:40:16;;;;;;;9.03;5.17;;;3.70;66.10;;;;;;5050526;28;20033;-81
2022/02/24 06:42:42;;;;;;;10.47;4.93;;;3.70;66.10;;;;;;5052088;28;20032;-81
2022/02/24 06:45:08;;;;;;;8.10;5.10;;;3.70;66.50;;;;;;5050151;28;20078;-82
2022/02/24 06:47:35;;;;;;;12.47;6.57;;;3.70;66.60;;;;;;5051183;28;20025;-82
2022/02/24 06:50:01;;;;;;;12.30;7.20;;;3.80;66.60;;;;;;5051618;28;20502;-81
2022/02/24 06:52:27;;;;;;;9.17;5.80;;;3.80;66.70;;;;;;5051352;28;20025;-82
2022/02/24 06:54:53;;;;;;;13.13;6.57;;;3.80;66.80;;;;;;5050375;28;20040;-81
2022/02/24 06:57:19;;;;;;;13.87;6.50;;;4.00;66.60;;;;;;5049376;28;20167;-78
2022/02/24 06:59:47;;;;;;;11.37;6.13;;;4.00;66.50;;;;;;5050664;28;20104;-81
2022/02/24 07:02:13;;;;;;;15.70;6.93;;;3.90;66.40;;;;;;5049193;28;20037;-81
2022/02/24 07:04:39;;;;;;;16.67;7.67;;;4.00;66.40;;;;;;5049684;28;20033;-81
2022/02/24 07:07:04;;;;;;;13.87;7.63;;;4.00;66.50;;;;;;5050536;28;20037;-81
2022/02/24 07:09:31;;;;;;;16.03;8.80;;;4.00;66.20;;;;;;5054012;28;20549;-81
2022/02/24 07:11:56;;;;;;;12.57;7.10;;;4.00;66.30;;;;;;5070599;28;20033;-81
2022/02/24 07:14:22;;;;;;;17.07;7.90;;;4.00;66.20;;;;;;5054531;28;20052;-81
2022/02/24 07:16:48;;;;;;;18.27;8.87;;;4.00;66.40;;;;;;5053885;28;20479;-82
2022/02/24 07:19:14;;;;;;;25.77;12.60;;;4.00;66.40;;;;;;5052045;28;20048;-81
2022/02/24 07:21:40;;;;;;;26.00;12.57;;;4.10;66.30;;;;;;5048059;28;20033;-81
2022/02/24 07:24:07;;;;;;;22.47;11.07;;;4.10;66.40;;;;;;5065257;28;20026;-81
2022/02/24 07:26:33;;;;;;;22.03;12.47;;;4.20;66.40;;;;;;5048239;28;20029;-81
2022/02/24 07:28:58;;;;;;;23.03;11.70;;;4.20;66.30;;;;;;5053474;28;20131;-81
2022/02/24 07:31:24;;;;;;;21.53;10.63;;;4.30;66.40;;;;;;5053509;28;20040;-81
2022/02/24 07:33:50;;;;;;;20.13;9.07;;;4.30;66.30;;;;;;5054365;28;20056;-81
2022/02/24 07:36:16;;;;;;;14.80;9.63;;;4.30;66.30;;;;;;5053815;28;20060;-81
2022/02/24 07:38:43;;;;;;;25.43;11.10;;;4.40;66.30;;;;;;5053063;28;20036;-81
2022/02/24 07:41:09;;;;;;;39.10;12.87;;;4.40;66.10;;;;;;5053087;28;20540;-81
2022/02/24 07:43:36;;;;;;;19.70;9.87;;;4.40;66.10;;;;;;5053128;28;20379;-81
2022/02/24 07:46:02;;;;;;;16.17;7.73;;;4.40;66.10;;;;;;5047515;28;20025;-81
2022/02/24 07:48:28;;;;;;;13.60;7.20;;;4.50;66.10;;;;;;5053354;28;20028;-81
2022/02/24 07:50:55;;;;;;;11.10;6.70;;;4.60;66.10;;;;;;5053507;28;20811;-81
2022/02/24 07:53:22;;;;;;;10.17;7.13;;;4.60;66.00;;;;;;5052771;28;20482;-81
2022/02/24 07:55:48;;;;;;;19.23;7.57;;;4.60;66.00;;;;;;5051965;28;20049;-81
2022/02/24 07:58:14;;;;;;;18.83;8.80;;;4.70;66.00;;;;;;5054287;28;20363;-82
2022/02/24 08:00:39;;;;;;;15.10;9.10;;;4.70;65.80;;;;;;5052023;28;20029;-82
2022/02/24 08:03:05;;;;;;;19.77;8.67;;;4.80;65.90;;;;;;5052343;28;20040;-81
2022/02/24 08:05:31;;;;;;;18.70;8.77;;;4.80;66.00;;;;;;5052738;28;20523;-81
2022/02/24 08:07:57;;;;;;;19.80;8.30;;;4.90;66.00;;;;;;5052034;28;20049;-81
2022/02/24 08:10:23;;;;;;;14.50;7.40;;;5.00;66.00;;;;;;5051092;28;20044;-82
2022/02/24 08:12:48;;;;;;;11.27;7.13;;;5.00;65.90;;;;;;5049073;28;20033;-82
2022/02/24 08:15:22;;;;;;;9.37;4.40;;;5.00;65.90;;;;;;5053098;28;20448;-81
2022/02/24 08:17:50;;;;;;;5.80;3.73;;;5.10;65.80;;;;;;5052955;28;20036;-82
2022/02/24 08:20:16;;;;;;;5.83;3.87;;;5.20;65.70;;;;;;5052199;28;20032;-82
2022/02/24 08:22:43;;;;;;;10.80;5.10;;;5.20;65.70;;;;;;5054183;28;20432;-81
2022/02/24 08:25:11;;;;;;;24.20;6.93;;;5.30;65.60;;;;;;5047195;28;20021;-81
2022/02/24 08:27:39;;;;;;;13.63;6.80;;;5.30;65.60;;;;;;5050988;28;20033;-82
2022/02/24 08:30:10;;;;;;;11.33;5.90;;;5.30;65.60;;;;;;5052466;28;20036;-81
2022/02/24 08:32:36;;;;;;;12.50;5.93;;;5.50;65.70;;;;;;5069315;28;20086;-81
2022/02/24 08:35:04;;;;;;;14.93;6.77;;;5.80;65.70;;;;;;5053715;28;20131;-83
2022/02/24 08:37:29;;;;;;;13.93;5.63;;;6.50;64.90;;;;;;5052540;28;20032;-80
2022/02/24 08:39:55;;;;;;;8.70;5.73;;;8.30;60.90;;;;;;5051837;28;20062;-82
2022/02/24 08:42:25;;;;;;;14.20;6.67;;;10.50;55.40;;;;;;5068759;28;20021;-81
2022/02/24 08:44:55;;;;;;;24.50;8.03;;;11.70;52.20;;;;;;5051588;28;20052;-82
2022/02/24 08:47:22;;;;;;;23.77;7.50;;;11.40;53.10;;;;;;5068888;28;20025;-82
2022/02/24 08:49:48;;;;;;;15.40;7.30;;;10.90;53.90;;;;;;5052269;28;20020;-81
2022/02/24 08:52:15;;;;;;;17.17;7.30;;;10.50;54.70;;;;;;5067729;28;20036;-81
2022/02/24 08:54:41;;;;;;;17.83;8.10;;;10.20;55.40;;;;;;5052564;28;20100;-81
2022/02/24 08:57:08;;;;;;;30.97;7.40;;;9.90;56.40;;;;;;5052906;28;20059;-81
2022/02/24 08:59:34;;;;;;;16.43;7.17;;;9.50;57.00;;;;;;5052743;28;20083;-81
2022/02/24 09:01:59;;;;;;;22.77;9.17;;;9.10;57.60;;;;;;5048253;28;20033;-81
2022/02/24 09:04:25;;;;;;;23.33;9.87;;;8.80;58.50;;;;;;5052446;28;20557;-81
2022/02/24 09:06:51;;;;;;;24.37;7.53;;;8.80;59.10;;;;;;5055413;28;20069;-81
2022/02/24 09:09:17;;;;;;;17.43;7.03;;;8.80;59.40;;;;;;5054639;28;20068;-81
2022/02/24 09:11:43;;;;;;;12.13;6.43;;;8.80;59.50;;;;;;5056093;28;20466;-81
2022/02/24 09:14:09;;;;;;;15.07;7.60;;;8.80;59.70;;;;;;5053564;28;20033;-82
2022/02/24 09:16:35;;;;;;;13.17;7.53;;;8.70;59.60;;;;;;5070639;28;20024;-81
2022/02/24 09:19:02;;;;;;;13.60;6.13;;;8.80;59.70;;;;;;5062818;28;20040;-82
2022/02/24 09:21:27;;;;;;;13.70;6.83;;;8.80;59.60;;;;;;5069916;28;20029;-81
2022/02/24 09:23:53;;;;;;;17.60;7.67;;;8.80;59.30;;;;;;5055025;28;20024;-81
2022/02/24 09:26:19;;;;;;;15.97;8.13;;;8.80;59.20;;;;;;5072050;28;20034;-82
2022/02/24 09:28:45;;;;;;;15.83;5.90;;;8.90;59.10;;;;;;5058429;28;20028;-82
2022/02/24 09:31:11;;;;;;;9.37;5.00;;;9.10;58.60;;;;;;5050696;28;20039;-82
2022/02/24 09:33:37;;;;;;;9.60;4.80;;;9.40;58.10;;;;;;5071988;28;20126;-82
2022/02/24 09:36:03;;;;;;;19.70;7.20;;;9.70;57.50;;;;;;5053313;28;20032;-83
2022/02/24 09:38:29;;;;;;;16.00;5.20;;;10.00;56.50;;;;;;5054054;28;20035;-82
2022/02/24 09:40:56;;;;;;;15.20;5.93;;;10.20;55.80;;;;;;5072505;28;20040;-82
2022/02/24 09:43:27;;;;;;;9.07;5.43;;;10.20;55.60;;;;;;5053849;28;20024;-82
2022/02/24 09:45:58;;;;;;;16.13;5.55;;;10.50;55.70;;;;;;5046335;28;20462;-82
2022/02/24 09:48:29;;;;;;;10.10;4.40;;;11.00;55.90;;;;;;5053481;28;20024;-82
2022/02/24 09:50:57;;;;;;;6.53;4.28;;;11.40;55.80;;;;;;5062055;28;20035;-82
2022/02/24 09:53:23;;;;;;;5.30;3.70;;;11.80;55.60;;;;;;5059200;28;20085;-82
2022/02/24 09:55:52;;;;;;;9.80;3.30;;;12.20;56.00;;;;;;5052780;28;20394;-82
2022/02/24 09:58:18;;;;;;;3.63;3.00;;;12.60;55.30;;;;;;5053755;28;20052;-82
2022/02/24 10:00:44;;;;;;;5.47;2.78;;;12.80;54.80;;;;;;5050299;28;20482;-82
2022/02/24 10:03:46;;;;;;;6.55;3.40;;;13.00;54.10;;;;;;5071026;28;20017;-82
2022/02/24 10:06:14;;;;;;;8.60;4.20;;;13.40;52.70;;;;;;4993740;28;20137;-82
2022/02/24 10:08:45;;;;;;;4.40;3.15;;;13.30;52.60;;;;;;5041807;28;20488;-83
2022/02/24 10:11:23;;;;;;;6.85;3.35;;;13.30;51.40;;;;;;5076415;28;20020;-82
2022/02/24 10:14:07;;;;;;;5.85;3.33;;;13.20;50.40;;;;;;5064628;28;20032;-82
2022/02/24 10:17:00;;;;;;;8.98;2.70;;;13.00;49.50;;;;;;5052872;28;20078;-82
2022/02/24 10:19:28;;;;;;;10.02;3.97;;;12.80;49.60;;;;;;5052111;28;20059;-82
2022/02/24 10:22:06;;;;;;;7.05;3.60;;;12.60;49.90;;;;;;5067127;28;20017;-83
2022/02/24 10:24:33;;;;;;;6.80;2.90;;;12.60;49.70;;;;;;5069360;28;20021;-81
2022/02/24 10:27:22;;;;;;;5.32;2.80;;;12.40;49.50;;;;;;5052567;28;20017;-83
2022/02/24 10:30:01;;;;;;;5.80;2.72;;;12.30;49.30;;;;;;5053437;28;20553;-82
2022/02/24 10:32:38;;;;;;;6.83;3.63;;;12.20;49.20;;;;;;5067150;28;20029;-82
2022/02/24 10:35:41;;;;;;;9.30;3.07;;;12.10;48.90;;;;;;5053864;28;20541;-82
2022/02/24 10:38:08;;;;;;;;;;;12.00;48.40;;;;;;5072825;28;20059;-82
2022/02/24 10:40:42;;;;;;;6.70;2.53;;;11.80;49.10;;;;;;5072277;28;20380;-82
2022/02/24 10:43:21;;;;;;;4.13;2.00;;;11.60;48.60;;;;;;5057038;28;20044;-82
2022/02/24 10:46:20;;;;;;;3.20;1.97;;;11.60;48.60;;;;;;5058918;28;20027;-81
2022/02/24 10:48:53;;;;;;;6.70;2.77;;;11.60;47.70;;;;;;5047986;28;20058;-82
2022/02/24 10:51:30;;;;;;;8.57;2.80;;;11.40;47.80;;;;;;5077216;28;20373;-82
2022/02/24 10:54:07;;;;;;;7.27;2.97;;;11.50;48.20;;;;;;5077339;28;20378;-82
2022/02/24 10:56:43;;;;;;;11.60;2.70;;;11.60;48.50;;;;;;5075751;28;20028;-82
2022/02/24 10:59:12;;;;;;;9.30;3.13;;;11.60;48.70;;;;;;5083911;28;20021;-82
2022/02/24 11:01:40;;;;;;;6.03;2.80;;;11.70;48.10;;;;;;5072100;28;20017;-82
2022/02/24 11:04:07;;;;;;;4.37;2.50;;;11.60;47.80;;;;;;5076556;28;20016;-82
2022/02/24 11:06:37;;;;;;;8.87;2.47;;;11.60;47.80;;;;;;5057776;28;20508;-82
2022/02/24 11:09:07;;;;;;;11.47;3.23;;;11.70;47.70;;;;;;5072080;28;20039;-82
2022/02/24 11:11:37;;;;;;;6.03;3.10;;;11.60;47.30;;;;;;5058986;28;20035;-82
2022/02/24 11:14:08;;;;;;;7.47;2.97;;;11.40;47.60;;;;;;5058505;28;20028;-82
2022/02/24 11:16:34;;;;;;;5.53;2.90;;;11.50;47.90;;;;;;5065238;28;20021;-81
2022/02/24 11:19:00;;;;;;;4.60;2.37;;;11.60;47.90;;;;;;5039684;28;20028;-82
2022/02/24 11:21:27;;;;;;;4.83;2.57;;;11.70;47.40;;;;;;5057649;28;20029;-81
2022/02/24 11:23:54;;;;;;;6.10;2.83;;;11.70;47.50;;;;;;5075830;28;20156;-81
2022/02/24 11:26:23;;;;;;;8.97;4.23;;;11.80;47.00;;;;;;5057535;28;20063;-82
2022/02/24 11:29:23;;;;;;;7.87;3.50;;;11.80;46.80;;;;;;5057305;28;20074;-82
2022/02/24 11:32:10;;;;;;;9.20;3.17;;;11.80;46.80;;;;;;5075259;28;20385;-81
2022/02/24 11:35:07;;;;;;;5.63;2.70;;;11.90;47.20;;;;;;5074880;28;20035;-82
2022/02/24 11:37:46;;;;;;;7.40;2.50;;;12.10;47.00;;;;;;5054735;28;20016;-82
2022/02/24 11:40:18;;;;;;;9.57;3.40;;;12.10;46.60;;;;;;5073201;28;20059;-83
2022/02/24 11:42:58;;;;;;;4.93;2.47;;;12.10;46.40;;;;;;5070489;28;20021;-82
2022/02/24 11:45:24;;;;;;;6.77;3.23;;;12.20;46.70;;;;;;5073806;28;20040;-82
2022/02/24 11:47:58;;;;;;;3.73;2.50;;;12.40;46.50;;;;;;5059409;28;20363;-82
2022/02/24 11:50:29;;;;;;;8.17;2.67;;;12.60;46.60;;;;;;5072272;28;20119;-82
2022/02/24 11:52:55;;;;;;;13.30;4.40;;;12.70;46.20;;;;;;5054530;28;20032;-82
2022/02/24 11:55:51;;;;;;;7.07;2.73;;;12.70;46.00;;;;;;5055007;28;20032;-81
2022/02/24 11:58:33;;;;;;;4.33;2.53;;;12.70;45.90;;;;;;5074820;28;20016;-82
2022/02/24 12:01:22;;;;;;;8.07;3.20;;;12.70;45.90;;;;;;5056049;28;20025;-82
2022/02/24 12:03:48;;;;;;;10.80;3.30;;;12.70;46.10;;;;;;5052731;28;20032;-82
2022/02/24 12:06:16;;;;;;;11.30;3.20;;;12.70;46.40;;;;;;5054330;28;20434;-82
2022/02/24 12:09:10;;;;;;;9.27;2.93;;;12.80;46.30;;;;;;5072477;28;20048;-82
2022/02/24 12:11:42;;;;;;;5.07;2.53;;;12.80;46.00;;;;;;5074456;28;20028;-82
2022/02/24 12:14:20;;;;;;;18.70;3.70;;;12.90;46.50;;;;;;5070167;28;20128;-82
2022/02/24 12:17:01;;;;;;;10.60;3.43;;;13.10;46.50;;;;;;5074876;28;20266;-82
2022/02/24 12:19:44;;;;;;;4.87;3.00;;;13.10;46.20;;;;;;5094434;28;20028;-82
2022/02/24 12:22:13;;;;;;;6.17;2.97;;;13.20;46.40;;;;;;5086787;28;20028;-81
2022/02/24 12:25:06;;;;;;;7.53;3.13;;;13.30;46.20;;;;;;5045295;28;20432;-82
2022/02/24 12:27:32;;;;;;;4.38;3.40;;;13.40;45.90;;;;;;5063559;28;20081;-82
2022/02/24 12:30:09;;;;;;;9.93;3.43;;;13.50;45.90;;;;;;5080008;28;20036;-82
2022/02/24 12:32:56;;;;;;;9.70;2.83;;;13.50;45.60;;;;;;5065715;28;20504;-82
2022/02/24 12:35:25;;;;;;;6.03;2.80;;;13.60;45.70;;;;;;5062468;28;20028;-81
2022/02/24 12:37:53;;;;;;;6.03;2.70;;;13.70;45.80;;;;;;5084273;28;20034;-82
2022/02/24 12:40:35;;;;;;;5.80;2.87;;;13.70;45.40;;;;;;5056838;28;20477;-82
2022/02/24 12:43:02;;;;;;;;;;;13.70;45.10;;;;;;5063806;28;20032;-82
2022/02/24 12:45:30;;;;;;;10.50;2.77;;;13.70;45.60;;;;;;5056204;28;19995;-82
2022/02/24 12:47:58;;;;;;;6.17;2.50;;;13.70;45.40;;;;;;5072209;28;20063;-81
2022/02/24 12:50:26;;;;;;;4.77;2.23;;;13.80;45.30;;;;;;5069802;28;20485;-80
2022/02/24 12:53:07;;;;;;;8.33;2.43;;;13.80;44.90;;;;;;5081978;28;20040;-81
2022/02/24 12:55:32;;;;;;;4.43;2.40;;;13.90;44.70;;;;;;5055642;28;20028;-82